RJTK(METAR)
12/16 16:00
METAR RJTK 160700Z 21026G36KT 9999 FEW030 SCT090 BKN130 14/05 Q1007
RMK 1CU030 3AC090 5AC130 A2975=
戻る
トップページへ戻る
IMOC Co,.Ltd.